sensor_id;sensor_type;location;lat;lon;timestamp;P1;durP1;ratioP1;P2;durP2;ratioP2
43678;SDS011;29279;50.858;4.392;2022-09-01T00:00:53;12.43;;;3.72;;
43678;SDS011;29279;50.858;4.392;2022-09-01T00:03:20;7.75;;;3.53;;
43678;SDS011;29279;50.858;4.392;2022-09-01T00:05:47;8.25;;;4.00;;
43678;SDS011;29279;50.858;4.392;2022-09-01T00:08:21;10.18;;;3.55;;
43678;SDS011;29279;50.858;4.392;2022-09-01T00:10:47;9.73;;;3.90;;
43678;SDS011;29279;50.858;4.392;2022-09-01T00:13:13;11.20;;;4.00;;
43678;SDS011;29279;50.858;4.392;2022-09-01T00:15:40;7.22;;;3.25;;
43678;SDS011;29279;50.858;4.392;2022-09-01T00:18:05;17.92;;;4.50;;
43678;SDS011;29279;50.858;4.392;2022-09-01T00:20:31;10.68;;;3.88;;
43678;SDS011;29279;50.858;4.392;2022-09-01T00:22:57;9.20;;;3.80;;
43678;SDS011;29279;50.858;4.392;2022-09-01T00:25:24;11.70;;;3.78;;
43678;SDS011;29279;50.858;4.392;2022-09-01T00:27:52;10.20;;;3.38;;
43678;SDS011;29279;50.858;4.392;2022-09-01T00:30:18;7.57;;;3.65;;
43678;SDS011;29279;50.858;4.392;2022-09-01T00:32:45;10.10;;;3.85;;
43678;SDS011;29279;50.858;4.392;2022-09-01T00:35:15;8.80;;;3.90;;
43678;SDS011;29279;50.858;4.392;2022-09-01T00:37:42;15.38;;;4.32;;
43678;SDS011;29279;50.858;4.392;2022-09-01T00:40:09;15.43;;;4.82;;
43678;SDS011;29279;50.858;4.392;2022-09-01T00:42:38;13.63;;;4.45;;
43678;SDS011;29279;50.858;4.392;2022-09-01T00:45:05;9.80;;;3.97;;
43678;SDS011;29279;50.858;4.392;2022-09-01T00:47:32;11.88;;;4.15;;
43678;SDS011;29279;50.858;4.392;2022-09-01T00:50:00;9.65;;;4.55;;
43678;SDS011;29279;50.858;4.392;2022-09-01T00:52:37;15.45;;;4.65;;
43678;SDS011;29279;50.858;4.392;2022-09-01T00:55:09;15.48;;;4.90;;
43678;SDS011;29279;50.858;4.392;2022-09-01T00:58:03;9.65;;;4.63;;
43678;SDS011;29279;50.858;4.392;2022-09-01T01:00:31;10.90;;;4.03;;
43678;SDS011;29279;50.858;4.392;2022-09-01T01:02:58;10.32;;;4.70;;
43678;SDS011;29279;50.858;4.392;2022-09-01T01:05:26;11.70;;;4.50;;
43678;SDS011;29279;50.858;4.392;2022-09-01T01:07:57;14.75;;;4.57;;
43678;SDS011;29279;50.858;4.392;2022-09-01T01:10:25;12.18;;;4.00;;
43678;SDS011;29279;50.858;4.392;2022-09-01T01:12:56;10.30;;;4.65;;
43678;SDS011;29279;50.858;4.392;2022-09-01T01:15:26;12.77;;;4.28;;
43678;SDS011;29279;50.858;4.392;2022-09-01T01:17:53;13.10;;;4.22;;
43678;SDS011;29279;50.858;4.392;2022-09-01T01:20:20;14.50;;;4.97;;
43678;SDS011;29279;50.858;4.392;2022-09-01T01:25:49;10.30;;;4.55;;
43678;SDS011;29279;50.858;4.392;2022-09-01T01:28:19;12.25;;;5.38;;
43678;SDS011;29279;50.858;4.392;2022-09-01T01:30:50;7.53;;;4.05;;
43678;SDS011;29279;50.858;4.392;2022-09-01T01:33:24;7.38;;;4.05;;
43678;SDS011;29279;50.858;4.392;2022-09-01T01:35:53;8.65;;;3.75;;
43678;SDS011;29279;50.858;4.392;2022-09-01T01:38:22;14.52;;;4.60;;
43678;SDS011;29279;50.858;4.392;2022-09-01T01:40:48;8.75;;;3.88;;
43678;SDS011;29279;50.858;4.392;2022-09-01T01:43:16;11.10;;;4.10;;
43678;SDS011;29279;50.858;4.392;2022-09-01T01:45:46;15.50;;;4.43;;
43678;SDS011;29279;50.858;4.392;2022-09-01T01:48:13;8.00;;;3.65;;
43678;SDS011;29279;50.858;4.392;2022-09-01T01:50:39;8.27;;;3.83;;
43678;SDS011;29279;50.858;4.392;2022-09-01T01:53:07;11.32;;;4.00;;
43678;SDS011;29279;50.858;4.392;2022-09-01T01:55:33;10.98;;;3.90;;
43678;SDS011;29279;50.858;4.392;2022-09-01T01:57:59;10.45;;;4.00;;
43678;SDS011;29279;50.858;4.392;2022-09-01T02:00:28;12.63;;;4.03;;
43678;SDS011;29279;50.858;4.392;2022-09-01T02:02:58;12.15;;;3.83;;
43678;SDS011;29279;50.858;4.392;2022-09-01T02:05:26;11.13;;;5.00;;
43678;SDS011;29279;50.858;4.392;2022-09-01T02:07:57;12.00;;;3.90;;
43678;SDS011;29279;50.858;4.392;2022-09-01T02:10:28;12.23;;;4.37;;
43678;SDS011;29279;50.858;4.392;2022-09-01T02:13:00;9.75;;;3.95;;
43678;SDS011;29279;50.858;4.392;2022-09-01T02:15:38;11.90;;;4.75;;
43678;SDS011;29279;50.858;4.392;2022-09-01T02:18:19;14.38;;;4.55;;
43678;SDS011;29279;50.858;4.392;2022-09-01T02:20:49;9.13;;;4.85;;
43678;SDS011;29279;50.858;4.392;2022-09-01T02:23:17;10.13;;;4.95;;
43678;SDS011;29279;50.858;4.392;2022-09-01T02:25:47;11.18;;;4.57;;
43678;SDS011;29279;50.858;4.392;2022-09-01T02:28:15;12.48;;;5.22;;
43678;SDS011;29279;50.858;4.392;2022-09-01T02:30:42;13.18;;;4.88;;
43678;SDS011;29279;50.858;4.392;2022-09-01T02:33:11;15.63;;;5.28;;
43678;SDS011;29279;50.858;4.392;2022-09-01T02:35:42;10.38;;;4.72;;
43678;SDS011;29279;50.858;4.392;2022-09-01T02:38:09;13.48;;;4.45;;
43678;SDS011;29279;50.858;4.392;2022-09-01T02:40:37;16.02;;;4.60;;
43678;SDS011;29279;50.858;4.392;2022-09-01T02:43:05;10.07;;;4.22;;
43678;SDS011;29279;50.858;4.392;2022-09-01T02:45:31;9.98;;;4.45;;
43678;SDS011;29279;50.858;4.392;2022-09-01T02:47:58;14.05;;;4.85;;
43678;SDS011;29279;50.858;4.392;2022-09-01T02:50:24;9.27;;;4.50;;
43678;SDS011;29279;50.858;4.392;2022-09-01T02:52:51;10.43;;;4.25;;
43678;SDS011;29279;50.858;4.392;2022-09-01T02:55:17;11.18;;;4.50;;
43678;SDS011;29279;50.858;4.392;2022-09-01T02:57:50;9.52;;;4.68;;
43678;SDS011;29279;50.858;4.392;2022-09-01T03:00:21;10.90;;;5.00;;
43678;SDS011;29279;50.858;4.392;2022-09-01T03:02:53;14.02;;;5.25;;
43678;SDS011;29279;50.858;4.392;2022-09-01T03:05:21;10.68;;;5.15;;
43678;SDS011;29279;50.858;4.392;2022-09-01T03:08:05;13.73;;;5.00;;
43678;SDS011;29279;50.858;4.392;2022-09-01T03:10:35;11.95;;;4.28;;
43678;SDS011;29279;50.858;4.392;2022-09-01T03:13:07;14.10;;;5.05;;
43678;SDS011;29279;50.858;4.392;2022-09-01T03:15:35;11.27;;;5.78;;
43678;SDS011;29279;50.858;4.392;2022-09-01T03:18:02;17.42;;;4.90;;
43678;SDS011;29279;50.858;4.392;2022-09-01T03:20:29;12.40;;;5.30;;
43678;SDS011;29279;50.858;4.392;2022-09-01T03:23:00;12.00;;;5.22;;
43678;SDS011;29279;50.858;4.392;2022-09-01T03:25:28;14.50;;;5.65;;
43678;SDS011;29279;50.858;4.392;2022-09-01T03:27:54;12.70;;;4.88;;
43678;SDS011;29279;50.858;4.392;2022-09-01T03:30:23;13.60;;;5.55;;
43678;SDS011;29279;50.858;4.392;2022-09-01T03:32:50;13.52;;;4.63;;
43678;SDS011;29279;50.858;4.392;2022-09-01T03:35:16;12.90;;;5.53;;
43678;SDS011;29279;50.858;4.392;2022-09-01T03:37:42;14.27;;;5.60;;
43678;SDS011;29279;50.858;4.392;2022-09-01T03:40:09;10.95;;;4.82;;
43678;SDS011;29279;50.858;4.392;2022-09-01T03:42:37;11.95;;;4.53;;
43678;SDS011;29279;50.858;4.392;2022-09-01T03:45:03;10.85;;;4.28;;
43678;SDS011;29279;50.858;4.392;2022-09-01T03:47:36;12.57;;;4.72;;
43678;SDS011;29279;50.858;4.392;2022-09-01T03:50:06;8.98;;;5.05;;
43678;SDS011;29279;50.858;4.392;2022-09-01T03:52:37;9.27;;;5.00;;
43678;SDS011;29279;50.858;4.392;2022-09-01T03:55:05;16.92;;;5.07;;
43678;SDS011;29279;50.858;4.392;2022-09-01T03:57:32;8.82;;;4.63;;
43678;SDS011;29279;50.858;4.392;2022-09-01T03:59:58;11.82;;;4.68;;
43678;SDS011;29279;50.858;4.392;2022-09-01T04:02:24;14.55;;;5.78;;
43678;SDS011;29279;50.858;4.392;2022-09-01T04:04:53;12.73;;;4.80;;
43678;SDS011;29279;50.858;4.392;2022-09-01T04:07:19;11.10;;;5.07;;
43678;SDS011;29279;50.858;4.392;2022-09-01T04:09:44;14.82;;;5.70;;
43678;SDS011;29279;50.858;4.392;2022-09-01T04:12:10;14.68;;;5.43;;
43678;SDS011;29279;50.858;4.392;2022-09-01T04:14:39;12.73;;;4.38;;
43678;SDS011;29279;50.858;4.392;2022-09-01T04:17:05;10.23;;;5.15;;
43678;SDS011;29279;50.858;4.392;2022-09-01T04:19:49;12.55;;;5.15;;
43678;SDS011;29279;50.858;4.392;2022-09-01T04:22:15;13.57;;;5.63;;
43678;SDS011;29279;50.858;4.392;2022-09-01T04:24:41;12.85;;;5.55;;
43678;SDS011;29279;50.858;4.392;2022-09-01T04:27:09;9.63;;;5.13;;
43678;SDS011;29279;50.858;4.392;2022-09-01T04:29:35;15.85;;;5.78;;
43678;SDS011;29279;50.858;4.392;2022-09-01T04:32:03;10.55;;;5.03;;
43678;SDS011;29279;50.858;4.392;2022-09-01T04:34:32;11.90;;;5.53;;
43678;SDS011;29279;50.858;4.392;2022-09-01T04:37:12;16.95;;;6.22;;
43678;SDS011;29279;50.858;4.392;2022-09-01T04:39:47;10.82;;;4.82;;
43678;SDS011;29279;50.858;4.392;2022-09-01T04:42:16;14.82;;;5.72;;
43678;SDS011;29279;50.858;4.392;2022-09-01T04:44:44;12.02;;;5.38;;
43678;SDS011;29279;50.858;4.392;2022-09-01T04:47:11;17.52;;;6.75;;
43678;SDS011;29279;50.858;4.392;2022-09-01T04:49:40;15.82;;;6.03;;
43678;SDS011;29279;50.858;4.392;2022-09-01T04:52:09;13.68;;;6.22;;
43678;SDS011;29279;50.858;4.392;2022-09-01T04:54:36;17.52;;;5.95;;
43678;SDS011;29279;50.858;4.392;2022-09-01T04:57:02;12.50;;;5.82;;
43678;SDS011;29279;50.858;4.392;2022-09-01T04:59:31;17.13;;;7.05;;
43678;SDS011;29279;50.858;4.392;2022-09-01T05:01:57;24.50;;;8.38;;
43678;SDS011;29279;50.858;4.392;2022-09-01T05:04:25;13.32;;;6.80;;
43678;SDS011;29279;50.858;4.392;2022-09-01T05:06:56;21.58;;;7.88;;
43678;SDS011;29279;50.858;4.392;2022-09-01T05:09:29;18.23;;;6.97;;
43678;SDS011;29279;50.858;4.392;2022-09-01T05:11:59;13.75;;;6.60;;
43678;SDS011;29279;50.858;4.392;2022-09-01T05:14:38;17.40;;;6.90;;
43678;SDS011;29279;50.858;4.392;2022-09-01T05:17:07;19.02;;;6.55;;
43678;SDS011;29279;50.858;4.392;2022-09-01T05:19:40;18.08;;;7.05;;
43678;SDS011;29279;50.858;4.392;2022-09-01T05:22:09;18.10;;;7.63;;
43678;SDS011;29279;50.858;4.392;2022-09-01T05:24:35;14.52;;;6.40;;
43678;SDS011;29279;50.858;4.392;2022-09-01T05:27:05;14.75;;;6.72;;
43678;SDS011;29279;50.858;4.392;2022-09-01T05:29:31;16.15;;;6.50;;
43678;SDS011;29279;50.858;4.392;2022-09-01T05:31:56;17.10;;;5.82;;
43678;SDS011;29279;50.858;4.392;2022-09-01T05:34:23;13.70;;;7.40;;
43678;SDS011;29279;50.858;4.392;2022-09-01T05:36:54;16.13;;;6.28;;
43678;SDS011;29279;50.858;4.392;2022-09-01T05:39:23;19.75;;;6.13;;
43678;SDS011;29279;50.858;4.392;2022-09-01T05:41:50;16.73;;;6.30;;
43678;SDS011;29279;50.858;4.392;2022-09-01T05:44:18;17.05;;;6.80;;
43678;SDS011;29279;50.858;4.392;2022-09-01T05:46:46;16.10;;;7.15;;
43678;SDS011;29279;50.858;4.392;2022-09-01T05:49:14;15.05;;;6.00;;
43678;SDS011;29279;50.858;4.392;2022-09-01T05:51:43;19.23;;;7.03;;
43678;SDS011;29279;50.858;4.392;2022-09-01T05:54:13;17.73;;;7.00;;
43678;SDS011;29279;50.858;4.392;2022-09-01T05:56:40;14.23;;;6.72;;
43678;SDS011;29279;50.858;4.392;2022-09-01T05:59:07;16.50;;;6.50;;
43678;SDS011;29279;50.858;4.392;2022-09-01T06:01:34;16.33;;;6.90;;
43678;SDS011;29279;50.858;4.392;2022-09-01T06:04:04;19.13;;;7.22;;
43678;SDS011;29279;50.858;4.392;2022-09-01T06:09:09;26.13;;;8.38;;
43678;SDS011;29279;50.858;4.392;2022-09-01T06:11:36;14.93;;;6.95;;
43678;SDS011;29279;50.858;4.392;2022-09-01T06:14:02;19.58;;;6.85;;
43678;SDS011;29279;50.858;4.392;2022-09-01T06:16:30;20.20;;;7.88;;
43678;SDS011;29279;50.858;4.392;2022-09-01T06:18:56;24.60;;;6.47;;
43678;SDS011;29279;50.858;4.392;2022-09-01T06:21:23;19.08;;;6.57;;
43678;SDS011;29279;50.858;4.392;2022-09-01T06:23:50;18.25;;;6.30;;
43678;SDS011;29279;50.858;4.392;2022-09-01T06:26:23;18.33;;;6.20;;
43678;SDS011;29279;50.858;4.392;2022-09-01T06:28:57;14.38;;;6.32;;
43678;SDS011;29279;50.858;4.392;2022-09-01T06:31:26;19.02;;;6.95;;
43678;SDS011;29279;50.858;4.392;2022-09-01T06:33:58;20.30;;;6.45;;
43678;SDS011;29279;50.858;4.392;2022-09-01T06:36:25;14.52;;;5.72;;
43678;SDS011;29279;50.858;4.392;2022-09-01T06:38:51;18.80;;;5.93;;
43678;SDS011;29279;50.858;4.392;2022-09-01T06:41:18;14.15;;;6.05;;
43678;SDS011;29279;50.858;4.392;2022-09-01T06:43:46;14.30;;;5.45;;
43678;SDS011;29279;50.858;4.392;2022-09-01T06:46:13;13.65;;;5.93;;
43678;SDS011;29279;50.858;4.392;2022-09-01T06:48:40;25.85;;;5.38;;
43678;SDS011;29279;50.858;4.392;2022-09-01T06:51:20;15.88;;;5.43;;
43678;SDS011;29279;50.858;4.392;2022-09-01T06:53:47;19.80;;;5.80;;
43678;SDS011;29279;50.858;4.392;2022-09-01T06:56:17;15.68;;;6.03;;
43678;SDS011;29279;50.858;4.392;2022-09-01T06:58:44;17.90;;;6.45;;
43678;SDS011;29279;50.858;4.392;2022-09-01T07:01:13;14.63;;;6.32;;
43678;SDS011;29279;50.858;4.392;2022-09-01T07:03:42;13.35;;;5.93;;
43678;SDS011;29279;50.858;4.392;2022-09-01T07:06:09;15.18;;;5.93;;
43678;SDS011;29279;50.858;4.392;2022-09-01T07:08:36;13.15;;;5.20;;
43678;SDS011;29279;50.858;4.392;2022-09-01T07:11:04;23.65;;;6.25;;
43678;SDS011;29279;50.858;4.392;2022-09-01T07:13:40;18.20;;;5.13;;
43678;SDS011;29279;50.858;4.392;2022-09-01T07:16:06;25.17;;;6.18;;
43678;SDS011;29279;50.858;4.392;2022-09-01T07:18:33;9.98;;;5.85;;
43678;SDS011;29279;50.858;4.392;2022-09-01T07:20:59;12.02;;;5.25;;
43678;SDS011;29279;50.858;4.392;2022-09-01T07:23:31;11.70;;;5.28;;
43678;SDS011;29279;50.858;4.392;2022-09-01T07:25:57;11.02;;;5.75;;
43678;SDS011;29279;50.858;4.392;2022-09-01T07:28:24;12.02;;;5.18;;
43678;SDS011;29279;50.858;4.392;2022-09-01T07:30:54;10.50;;;5.47;;
43678;SDS011;29279;50.858;4.392;2022-09-01T07:33:20;10.10;;;4.63;;
43678;SDS011;29279;50.858;4.392;2022-09-01T07:35:51;11.15;;;4.97;;
43678;SDS011;29279;50.858;4.392;2022-09-01T07:38:19;14.05;;;4.88;;
43678;SDS011;29279;50.858;4.392;2022-09-01T07:40:46;13.77;;;4.80;;
43678;SDS011;29279;50.858;4.392;2022-09-01T07:43:17;8.18;;;4.30;;
43678;SDS011;29279;50.858;4.392;2022-09-01T07:45:46;8.05;;;4.25;;
43678;SDS011;29279;50.858;4.392;2022-09-01T07:48:15;7.55;;;4.47;;
43678;SDS011;29279;50.858;4.392;2022-09-01T07:50:44;8.48;;;4.00;;
43678;SDS011;29279;50.858;4.392;2022-09-01T07:53:20;7.45;;;3.70;;
43678;SDS011;29279;50.858;4.392;2022-09-01T07:55:52;14.70;;;4.80;;
43678;SDS011;29279;50.858;4.392;2022-09-01T07:58:20;10.13;;;4.35;;
43678;SDS011;29279;50.858;4.392;2022-09-01T08:00:51;10.32;;;4.35;;
43678;SDS011;29279;50.858;4.392;2022-09-01T08:03:21;11.38;;;3.67;;
43678;SDS011;29279;50.858;4.392;2022-09-01T08:05:48;10.88;;;3.95;;
43678;SDS011;29279;50.858;4.392;2022-09-01T08:08:18;10.82;;;3.95;;
43678;SDS011;29279;50.858;4.392;2022-09-01T08:10:45;9.25;;;3.67;;
43678;SDS011;29279;50.858;4.392;2022-09-01T08:13:12;12.88;;;4.00;;
43678;SDS011;29279;50.858;4.392;2022-09-01T08:15:39;10.90;;;3.17;;
43678;SDS011;29279;50.858;4.392;2022-09-01T08:18:05;7.60;;;3.65;;
43678;SDS011;29279;50.858;4.392;2022-09-01T08:20:31;17.10;;;3.55;;
43678;SDS011;29279;50.858;4.392;2022-09-01T08:23:01;11.80;;;4.13;;
43678;SDS011;29279;50.858;4.392;2022-09-01T08:25:28;11.30;;;3.47;;
43678;SDS011;29279;50.858;4.392;2022-09-01T08:27:55;10.40;;;3.03;;
43678;SDS011;29279;50.858;4.392;2022-09-01T08:30:20;10.18;;;3.33;;
43678;SDS011;29279;50.858;4.392;2022-09-01T08:32:47;11.20;;;2.88;;
43678;SDS011;29279;50.858;4.392;2022-09-01T08:35:14;11.18;;;3.05;;
43678;SDS011;29279;50.858;4.392;2022-09-01T08:37:40;13.73;;;3.05;;
43678;SDS011;29279;50.858;4.392;2022-09-01T08:40:09;12.07;;;3.05;;
43678;SDS011;29279;50.858;4.392;2022-09-01T08:45:28;5.82;;;2.50;;
43678;SDS011;29279;50.858;4.392;2022-09-01T08:48:48;11.55;;;3.28;;
43678;SDS011;29279;50.858;4.392;2022-09-01T08:51:14;8.50;;;2.75;;
43678;SDS011;29279;50.858;4.392;2022-09-01T08:54:10;11.25;;;2.63;;
43678;SDS011;29279;50.858;4.392;2022-09-01T08:56:40;4.75;;;2.47;;
43678;SDS011;29279;50.858;4.392;2022-09-01T08:59:08;6.20;;;2.30;;
43678;SDS011;29279;50.858;4.392;2022-09-01T09:10:26;10.02;;;2.60;;
43678;SDS011;29279;50.858;4.392;2022-09-01T09:16:11;4.72;;;2.60;;
43678;SDS011;29279;50.858;4.392;2022-09-01T09:18:50;4.32;;;2.22;;
43678;SDS011;29279;50.858;4.392;2022-09-01T09:21:29;6.50;;;2.30;;
43678;SDS011;29279;50.858;4.392;2022-09-01T09:26:35;9.00;;;2.38;;
43678;SDS011;29279;50.858;4.392;2022-09-01T09:29:01;9.30;;;2.25;;
43678;SDS011;29279;50.858;4.392;2022-09-01T09:31:28;9.07;;;2.08;;
43678;SDS011;29279;50.858;4.392;2022-09-01T09:33:58;5.55;;;2.83;;
43678;SDS011;29279;50.858;4.392;2022-09-01T09:36:28;5.22;;;2.33;;
43678;SDS011;29279;50.858;4.392;2022-09-01T09:39:07;4.60;;;2.13;;
43678;SDS011;29279;50.858;4.392;2022-09-01T09:41:33;6.63;;;1.90;;
43678;SDS011;29279;50.858;4.392;2022-09-01T09:44:02;3.05;;;1.45;;
43678;SDS011;29279;50.858;4.392;2022-09-01T09:46:49;3.60;;;1.65;;
43678;SDS011;29279;50.858;4.392;2022-09-01T09:49:20;11.63;;;1.83;;
43678;SDS011;29279;50.858;4.392;2022-09-01T09:52:12;7.85;;;2.30;;
43678;SDS011;29279;50.858;4.392;2022-09-01T09:54:57;3.13;;;1.55;;
43678;SDS011;29279;50.858;4.392;2022-09-01T09:57:28;3.50;;;1.60;;
43678;SDS011;29279;50.858;4.392;2022-09-01T10:00:05;7.20;;;1.85;;
43678;SDS011;29279;50.858;4.392;2022-09-01T10:02:40;3.85;;;1.33;;
43678;SDS011;29279;50.858;4.392;2022-09-01T10:05:22;5.45;;;1.63;;
43678;SDS011;29279;50.858;4.392;2022-09-01T10:07:56;7.43;;;1.55;;
43678;SDS011;29279;50.858;4.392;2022-09-01T10:10:27;5.65;;;1.60;;
43678;SDS011;29279;50.858;4.392;2022-09-01T10:13:11;5.10;;;1.50;;
43678;SDS011;29279;50.858;4.392;2022-09-01T10:18:14;6.15;;;1.63;;
43678;SDS011;29279;50.858;4.392;2022-09-01T10:21:17;6.13;;;1.45;;
43678;SDS011;29279;50.858;4.392;2022-09-01T10:23:40;6.38;;;1.48;;
43678;SDS011;29279;50.858;4.392;2022-09-01T10:26:17;3.35;;;1.25;;
43678;SDS011;29279;50.858;4.392;2022-09-01T10:29:07;3.63;;;1.23;;
43678;SDS011;29279;50.858;4.392;2022-09-01T10:31:39;3.75;;;1.30;;
43678;SDS011;29279;50.858;4.392;2022-09-01T10:34:05;3.10;;;1.33;;
43678;SDS011;29279;50.858;4.392;2022-09-01T10:36:38;3.50;;;1.42;;
43678;SDS011;29279;50.858;4.392;2022-09-01T10:39:11;1.52;;;1.10;;
43678;SDS011;29279;50.858;4.392;2022-09-01T10:44:17;3.92;;;1.48;;
43678;SDS011;29279;50.858;4.392;2022-09-01T10:46:44;5.32;;;1.30;;
43678;SDS011;29279;50.858;4.392;2022-09-01T10:49:19;9.13;;;1.40;;
43678;SDS011;29279;50.858;4.392;2022-09-01T10:51:55;6.30;;;1.40;;
43678;SDS011;29279;50.858;4.392;2022-09-01T11:08:46;1.52;;;1.05;;
43678;SDS011;29279;50.858;4.392;2022-09-01T11:14:03;6.38;;;1.23;;
43678;SDS011;29279;50.858;4.392;2022-09-01T11:19:42;5.70;;;1.55;;
43678;SDS011;29279;50.858;4.392;2022-09-01T11:25:15;7.13;;;1.70;;
43678;SDS011;29279;50.858;4.392;2022-09-01T11:27:59;5.80;;;1.52;;
43678;SDS011;29279;50.858;4.392;2022-09-01T11:30:48;3.53;;;1.15;;
43678;SDS011;29279;50.858;4.392;2022-09-01T11:44:45;4.78;;;1.13;;
43678;SDS011;29279;50.858;4.392;2022-09-01T11:47:26;1.48;;;1.10;;
43678;SDS011;29279;50.858;4.392;2022-09-01T11:49:59;5.30;;;1.38;;
43678;SDS011;29279;50.858;4.392;2022-09-01T11:52:29;3.38;;;1.20;;
43678;SDS011;29279;50.858;4.392;2022-09-01T11:55:00;3.33;;;1.13;;
43678;SDS011;29279;50.858;4.392;2022-09-01T11:57:31;4.07;;;1.55;;
43678;SDS011;29279;50.858;4.392;2022-09-01T12:00:00;4.50;;;1.65;;
43678;SDS011;29279;50.858;4.392;2022-09-01T12:02:32;5.93;;;1.52;;
43678;SDS011;29279;50.858;4.392;2022-09-01T12:05:00;4.32;;;1.58;;
43678;SDS011;29279;50.858;4.392;2022-09-01T12:09:56;6.38;;;1.20;;
43678;SDS011;29279;50.858;4.392;2022-09-01T12:12:40;5.00;;;1.10;;
43678;SDS011;29279;50.858;4.392;2022-09-01T12:15:22;6.45;;;1.65;;
43678;SDS011;29279;50.858;4.392;2022-09-01T12:17:49;7.80;;;1.70;;
43678;SDS011;29279;50.858;4.392;2022-09-01T12:20:34;5.40;;;1.33;;
43678;SDS011;29279;50.858;4.392;2022-09-01T12:23:02;6.50;;;1.35;;
43678;SDS011;29279;50.858;4.392;2022-09-01T12:25:39;7.00;;;1.58;;
43678;SDS011;29279;50.858;4.392;2022-09-01T12:28:05;6.10;;;1.60;;
43678;SDS011;29279;50.858;4.392;2022-09-01T12:30:31;3.20;;;1.23;;
43678;SDS011;29279;50.858;4.392;2022-09-01T12:33:04;9.50;;;1.85;;
43678;SDS011;29279;50.858;4.392;2022-09-01T12:35:32;3.50;;;1.52;;
43678;SDS011;29279;50.858;4.392;2022-09-01T12:40:46;6.60;;;1.42;;
43678;SDS011;29279;50.858;4.392;2022-09-01T12:43:32;2.88;;;1.13;;
43678;SDS011;29279;50.858;4.392;2022-09-01T12:46:03;4.80;;;1.40;;
43678;SDS011;29279;50.858;4.392;2022-09-01T12:48:32;2.72;;;1.45;;
43678;SDS011;29279;50.858;4.392;2022-09-01T12:51:21;6.60;;;1.42;;
43678;SDS011;29279;50.858;4.392;2022-09-01T12:53:57;5.22;;;1.80;;
43678;SDS011;29279;50.858;4.392;2022-09-01T12:56:31;5.20;;;1.17;;
43678;SDS011;29279;50.858;4.392;2022-09-01T12:59:41;2.85;;;1.10;;
43678;SDS011;29279;50.858;4.392;2022-09-01T13:01:49;1.40;;;1.10;;
43678;SDS011;29279;50.858;4.392;2022-09-01T13:06:50;6.85;;;1.55;;
43678;SDS011;29279;50.858;4.392;2022-09-01T13:09:18;4.20;;;1.40;;
43678;SDS011;29279;50.858;4.392;2022-09-01T13:11:44;2.92;;;1.25;;
43678;SDS011;29279;50.858;4.392;2022-09-01T13:14:11;4.07;;;1.13;;
43678;SDS011;29279;50.858;4.392;2022-09-01T13:16:37;10.38;;;1.58;;
43678;SDS011;29279;50.858;4.392;2022-09-01T13:19:03;3.88;;;1.20;;
43678;SDS011;29279;50.858;4.392;2022-09-01T13:21:30;3.20;;;1.60;;
43678;SDS011;29279;50.858;4.392;2022-09-01T13:23:58;2.38;;;1.45;;
43678;SDS011;29279;50.858;4.392;2022-09-01T13:26:25;2.35;;;1.30;;
43678;SDS011;29279;50.858;4.392;2022-09-01T13:28:53;4.28;;;1.35;;
43678;SDS011;29279;50.858;4.392;2022-09-01T13:31:18;3.15;;;1.27;;
43678;SDS011;29279;50.858;4.392;2022-09-01T13:33:44;1.77;;;1.02;;
43678;SDS011;29279;50.858;4.392;2022-09-01T13:36:10;4.82;;;0.98;;
43678;SDS011;29279;50.858;4.392;2022-09-01T13:38:35;3.55;;;1.45;;
43678;SDS011;29279;50.858;4.392;2022-09-01T13:41:01;5.35;;;1.35;;
43678;SDS011;29279;50.858;4.392;2022-09-01T13:43:27;4.78;;;1.35;;
43678;SDS011;29279;50.858;4.392;2022-09-01T13:45:53;3.40;;;1.35;;
43678;SDS011;29279;50.858;4.392;2022-09-01T13:48:19;3.15;;;1.30;;
43678;SDS011;29279;50.858;4.392;2022-09-01T13:50:48;4.13;;;1.65;;
43678;SDS011;29279;50.858;4.392;2022-09-01T13:53:16;2.30;;;1.02;;
43678;SDS011;29279;50.858;4.392;2022-09-01T13:55:43;8.43;;;1.75;;
43678;SDS011;29279;50.858;4.392;2022-09-01T13:58:09;3.80;;;1.60;;
43678;SDS011;29279;50.858;4.392;2022-09-01T14:00:37;1.98;;;1.30;;
43678;SDS011;29279;50.858;4.392;2022-09-01T14:03:06;6.10;;;1.60;;
43678;SDS011;29279;50.858;4.392;2022-09-01T14:05:35;9.20;;;1.73;;
43678;SDS011;29279;50.858;4.392;2022-09-01T14:08:04;4.57;;;1.58;;
43678;SDS011;29279;50.858;4.392;2022-09-01T14:10:31;3.08;;;1.20;;
43678;SDS011;29279;50.858;4.392;2022-09-01T14:12:58;5.45;;;1.55;;
43678;SDS011;29279;50.858;4.392;2022-09-01T14:15:24;5.35;;;1.50;;
43678;SDS011;29279;50.858;4.392;2022-09-01T14:17:51;3.58;;;1.90;;
43678;SDS011;29279;50.858;4.392;2022-09-01T14:20:21;5.55;;;1.38;;
43678;SDS011;29279;50.858;4.392;2022-09-01T14:22:50;3.80;;;1.15;;
43678;SDS011;29279;50.858;4.392;2022-09-01T14:25:16;2.70;;;1.15;;
43678;SDS011;29279;50.858;4.392;2022-09-01T14:27:44;2.85;;;1.40;;
43678;SDS011;29279;50.858;4.392;2022-09-01T14:30:13;6.05;;;1.42;;
43678;SDS011;29279;50.858;4.392;2022-09-01T14:32:50;4.97;;;1.00;;
43678;SDS011;29279;50.858;4.392;2022-09-01T14:35:17;2.80;;;1.25;;
43678;SDS011;29279;50.858;4.392;2022-09-01T14:37:44;3.05;;;1.63;;
43678;SDS011;29279;50.858;4.392;2022-09-01T14:40:11;3.88;;;2.08;;
43678;SDS011;29279;50.858;4.392;2022-09-01T14:42:40;2.63;;;1.40;;
43678;SDS011;29279;50.858;4.392;2022-09-01T14:45:13;2.00;;;1.08;;
43678;SDS011;29279;50.858;4.392;2022-09-01T14:47:43;5.03;;;1.50;;
43678;SDS011;29279;50.858;4.392;2022-09-01T14:50:10;2.95;;;1.20;;
43678;SDS011;29279;50.858;4.392;2022-09-01T14:52:37;2.97;;;1.10;;
43678;SDS011;29279;50.858;4.392;2022-09-01T14:55:03;2.45;;;1.25;;
43678;SDS011;29279;50.858;4.392;2022-09-01T14:57:29;3.75;;;1.15;;
43678;SDS011;29279;50.858;4.392;2022-09-01T14:59:56;3.08;;;1.50;;
43678;SDS011;29279;50.858;4.392;2022-09-01T15:02:21;2.30;;;1.20;;
43678;SDS011;29279;50.858;4.392;2022-09-01T15:04:48;4.45;;;1.10;;
43678;SDS011;29279;50.858;4.392;2022-09-01T15:07:14;8.77;;;1.42;;
43678;SDS011;29279;50.858;4.392;2022-09-01T15:09:40;4.60;;;1.33;;
43678;SDS011;29279;50.858;4.392;2022-09-01T15:12:06;3.30;;;1.40;;
43678;SDS011;29279;50.858;4.392;2022-09-01T15:14:33;2.03;;;1.45;;
43678;SDS011;29279;50.858;4.392;2022-09-01T15:17:00;7.57;;;1.33;;
43678;SDS011;29279;50.858;4.392;2022-09-01T15:19:25;5.05;;;1.52;;
43678;SDS011;29279;50.858;4.392;2022-09-01T15:21:51;3.08;;;1.20;;
43678;SDS011;29279;50.858;4.392;2022-09-01T15:24:17;4.22;;;1.08;;
43678;SDS011;29279;50.858;4.392;2022-09-01T15:26:43;4.13;;;1.48;;
43678;SDS011;29279;50.858;4.392;2022-09-01T15:29:10;4.40;;;1.17;;
43678;SDS011;29279;50.858;4.392;2022-09-01T15:31:39;6.20;;;1.50;;
43678;SDS011;29279;50.858;4.392;2022-09-01T15:34:06;1.73;;;0.90;;
43678;SDS011;29279;50.858;4.392;2022-09-01T15:36:33;6.28;;;1.10;;
43678;SDS011;29279;50.858;4.392;2022-09-01T15:39:01;3.20;;;1.20;;
43678;SDS011;29279;50.858;4.392;2022-09-01T15:41:27;2.63;;;1.17;;
43678;SDS011;29279;50.858;4.392;2022-09-01T15:43:55;4.45;;;1.27;;
43678;SDS011;29279;50.858;4.392;2022-09-01T15:46:22;3.85;;;1.38;;
43678;SDS011;29279;50.858;4.392;2022-09-01T15:48:55;2.75;;;1.10;;
43678;SDS011;29279;50.858;4.392;2022-09-01T15:53:57;4.75;;;1.67;;
43678;SDS011;29279;50.858;4.392;2022-09-01T15:56:35;2.85;;;1.10;;
43678;SDS011;29279;50.858;4.392;2022-09-01T15:59:01;8.23;;;1.65;;
43678;SDS011;29279;50.858;4.392;2022-09-01T16:01:30;4.95;;;1.30;;
43678;SDS011;29279;50.858;4.392;2022-09-01T16:03:57;2.90;;;1.42;;
43678;SDS011;29279;50.858;4.392;2022-09-01T16:06:23;2.50;;;1.17;;
43678;SDS011;29279;50.858;4.392;2022-09-01T16:08:50;3.08;;;1.13;;